createdAt,value
2022-08-23T00:00:46.697Z,22.10
2022-08-23T00:03:15.718Z,22.10
2022-08-23T00:05:42.367Z,22.00
2022-08-23T00:08:09.091Z,22.00
2022-08-23T00:10:35.783Z,22.00
2022-08-23T00:13:02.566Z,22.00
2022-08-23T00:15:29.479Z,22.00
2022-08-23T00:17:56.458Z,22.00
2022-08-23T00:20:23.683Z,22.00
2022-08-23T00:22:50.518Z,22.10
2022-08-23T00:25:17.833Z,22.10
2022-08-23T00:27:44.955Z,22.10
2022-08-23T00:30:12.750Z,22.20
2022-08-23T00:32:40.507Z,22.30
2022-08-23T00:35:08.930Z,22.40
2022-08-23T00:37:35.715Z,22.40
2022-08-23T00:40:02.609Z,22.50
2022-08-23T00:42:54.047Z,22.50
2022-08-23T00:45:42.432Z,22.50
2022-08-23T00:48:09.207Z,22.50
2022-08-23T00:50:45.947Z,22.50
2022-08-23T00:53:16.380Z,22.50
2022-08-23T00:55:45.149Z,22.40
2022-08-23T00:58:13.681Z,22.40
2022-08-23T01:00:40.619Z,22.40
2022-08-23T01:03:09.765Z,22.90
2022-08-23T01:05:44.154Z,22.40
2022-08-23T01:08:11.410Z,22.70
2022-08-23T01:10:43.476Z,22.40
2022-08-23T01:13:14.901Z,22.40
2022-08-23T01:15:44.143Z,22.40
2022-08-23T01:18:11.676Z,22.50
2022-08-23T01:21:01.447Z,22.40
2022-08-23T01:23:49.786Z,22.30
2022-08-23T01:26:21.543Z,22.40
2022-08-23T01:28:49.514Z,22.40
2022-08-23T01:31:16.438Z,22.30
2022-08-23T01:33:43.722Z,22.30
2022-08-23T01:36:11.986Z,22.30
2022-08-23T01:38:38.785Z,22.30
2022-08-23T01:41:06.964Z,22.30
2022-08-23T01:43:33.962Z,22.30
2022-08-23T01:46:08.326Z,22.30
2022-08-23T01:48:35.445Z,22.30
2022-08-23T01:51:02.179Z,22.30
2022-08-23T01:53:28.866Z,22.30
2022-08-23T01:55:55.594Z,22.30
2022-08-23T01:58:22.487Z,22.30
2022-08-23T02:00:49.199Z,22.30
2022-08-23T02:03:15.955Z,22.30
2022-08-23T02:05:42.913Z,22.20
2022-08-23T02:08:28.266Z,22.30
2022-08-23T02:10:55.054Z,22.30
2022-08-23T02:13:21.832Z,22.30
2022-08-23T02:15:51.263Z,22.20
2022-08-23T02:18:19.405Z,22.20
2022-08-23T02:20:47.011Z,22.30
2022-08-23T02:23:13.769Z,22.20
2022-08-23T02:25:41.091Z,22.20
2022-08-23T02:28:07.994Z,22.20
2022-08-23T02:30:34.663Z,22.20
2022-08-23T02:33:01.882Z,22.20
2022-08-23T02:35:33.719Z,22.20
2022-08-23T02:38:04.582Z,22.20
2022-08-23T02:40:31.309Z,22.20
2022-08-23T02:43:00.082Z,22.20
2022-08-23T02:45:27.379Z,22.20
2022-08-23T02:47:54.346Z,22.20
2022-08-23T02:50:21.378Z,22.20
2022-08-23T02:52:48.073Z,22.20
2022-08-23T02:55:14.794Z,22.20
2022-08-23T02:57:41.465Z,22.20
2022-08-23T03:00:10.226Z,22.20
2022-08-23T03:02:37.465Z,22.20
2022-08-23T03:05:05.617Z,22.20
2022-08-23T03:07:32.298Z,22.20
2022-08-23T03:10:01.750Z,22.10
2022-08-23T03:12:28.628Z,21.40
2022-08-23T03:14:56.302Z,22.10
2022-08-23T03:17:24.114Z,22.10
2022-08-23T03:19:52.424Z,22.20
2022-08-23T03:22:19.129Z,22.10
2022-08-23T03:24:45.972Z,22.10
2022-08-23T03:27:12.691Z,22.10
2022-08-23T03:29:39.357Z,22.10
2022-08-23T03:32:06.247Z,22.10
2022-08-23T03:34:33.013Z,22.10
2022-08-23T03:36:59.658Z,22.10
2022-08-23T03:39:26.409Z,22.10
2022-08-23T03:41:53.094Z,22.10
2022-08-23T03:44:19.831Z,22.10
2022-08-23T03:46:46.631Z,22.10
2022-08-23T03:49:13.299Z,22.10
2022-08-23T03:51:39.970Z,22.10
2022-08-23T03:54:06.757Z,22.10
2022-08-23T03:56:35.646Z,22.10
2022-08-23T03:59:04.151Z,22.10
2022-08-23T04:01:30.871Z,22.20
2022-08-23T04:04:00.634Z,22.20
2022-08-23T04:06:28.028Z,22.20
2022-08-23T04:08:55.112Z,22.20
2022-08-23T04:11:22.865Z,22.30
2022-08-23T04:13:49.734Z,22.30
2022-08-23T04:16:18.963Z,22.30
2022-08-23T04:18:46.014Z,22.30
2022-08-23T04:21:14.686Z,22.30
2022-08-23T04:23:41.471Z,22.30
2022-08-23T04:26:09.838Z,22.30
2022-08-23T04:28:37.169Z,22.30
2022-08-23T04:31:04.782Z,22.30
2022-08-23T04:33:32.906Z,22.30
2022-08-23T04:36:00.782Z,22.80
2022-08-23T04:38:27.545Z,22.30
2022-08-23T04:41:13.535Z,22.30
2022-08-23T04:43:40.503Z,22.30
2022-08-23T04:46:07.454Z,22.30
2022-08-23T04:48:34.173Z,22.30
2022-08-23T04:51:01.123Z,22.30
2022-08-23T04:53:30.356Z,22.30
2022-08-23T04:55:57.169Z,22.30
2022-08-23T04:58:23.855Z,22.30
2022-08-23T05:00:53.453Z,22.30
2022-08-23T05:03:20.323Z,22.30
2022-08-23T05:05:47.201Z,22.30
2022-08-23T05:08:13.991Z,22.30
2022-08-23T05:10:40.712Z,22.30
2022-08-23T05:13:07.423Z,22.30
2022-08-23T05:15:34.085Z,22.30
2022-08-23T05:18:00.955Z,22.30
2022-08-23T05:20:28.085Z,22.30
2022-08-23T05:22:54.875Z,22.20
2022-08-23T05:25:21.894Z,22.30
2022-08-23T05:27:48.641Z,22.30
2022-08-23T05:30:15.672Z,22.20
2022-08-23T05:32:42.892Z,22.20
2022-08-23T05:35:09.789Z,22.20
2022-08-23T05:37:36.479Z,22.20
2022-08-23T05:40:03.949Z,22.20
2022-08-23T05:42:30.691Z,22.20
2022-08-23T05:44:57.481Z,22.20
2022-08-23T05:47:27.120Z,22.20
2022-08-23T05:49:53.810Z,22.20
2022-08-23T05:52:20.791Z,22.20
2022-08-23T05:54:47.553Z,22.20
2022-08-23T05:57:14.255Z,22.20
2022-08-23T05:59:42.050Z,22.20
2022-08-23T06:02:09.330Z,22.20
2022-08-23T06:04:36.167Z,22.10
2022-08-23T06:07:03.088Z,22.20
2022-08-23T06:09:29.888Z,22.20
2022-08-23T06:11:56.598Z,22.20
2022-08-23T06:14:23.674Z,22.20
2022-08-23T06:16:55.597Z,22.10
2022-08-23T06:19:23.017Z,22.10
2022-08-23T06:21:49.791Z,22.10
2022-08-23T06:24:16.528Z,22.10
2022-08-23T06:26:44.732Z,22.10
2022-08-23T06:29:13.315Z,22.10
2022-08-23T06:31:47.818Z,22.10
2022-08-23T06:34:23.610Z,22.10
2022-08-23T06:37:00.966Z,22.10
2022-08-23T06:39:28.572Z,22.10
2022-08-23T06:42:05.547Z,22.10
2022-08-23T06:44:40.376Z,22.10
2022-08-23T06:47:08.736Z,22.20
2022-08-23T06:49:35.631Z,22.10
2022-08-23T06:52:04.385Z,22.10
2022-08-23T06:54:33.810Z,22.10
2022-08-23T06:57:01.183Z,22.10
2022-08-23T06:59:28.304Z,22.10
2022-08-23T07:01:56.694Z,22.10
2022-08-23T07:04:24.902Z,22.10
2022-08-23T07:06:51.606Z,22.10
2022-08-23T07:09:18.874Z,22.10
2022-08-23T07:11:45.865Z,22.10
2022-08-23T07:14:13.621Z,22.10
2022-08-23T07:16:42.114Z,22.10
2022-08-23T07:19:09.227Z,22.20
2022-08-23T07:21:36.799Z,22.20
2022-08-23T07:24:03.928Z,22.20
2022-08-23T07:26:30.861Z,22.20
2022-08-23T07:28:57.543Z,22.30
2022-08-23T07:31:27.330Z,22.30
2022-08-23T07:33:54.984Z,22.30
2022-08-23T07:36:29.213Z,22.30
2022-08-23T07:38:56.433Z,23.40
2022-08-23T07:41:31.092Z,22.30
2022-08-23T07:44:01.429Z,22.30
2022-08-23T07:46:29.927Z,22.30
2022-08-23T07:49:00.817Z,22.30
2022-08-23T07:51:28.684Z,22.30
2022-08-23T07:53:55.520Z,22.30
2022-08-23T07:56:22.497Z,22.30
2022-08-23T07:58:50.150Z,22.30
2022-08-23T08:01:18.558Z,22.30
2022-08-23T08:03:47.871Z,22.30
2022-08-23T08:06:15.976Z,22.30
2022-08-23T08:08:43.264Z,22.30
2022-08-23T08:11:14.118Z,22.30
2022-08-23T08:13:41.409Z,22.30
2022-08-23T08:16:08.800Z,22.30
2022-08-23T08:18:36.524Z,22.30
2022-08-23T08:21:06.378Z,22.50
2022-08-23T08:23:33.098Z,22.30
2022-08-23T08:26:01.322Z,22.30
2022-08-23T08:28:28.068Z,22.30
2022-08-23T08:30:55.213Z,22.20
2022-08-23T08:33:22.046Z,22.30
2022-08-23T08:36:00.734Z,22.30
2022-08-23T08:38:31.658Z,22.30
2022-08-23T08:41:18.002Z,22.30
2022-08-23T08:43:50.731Z,22.30
2022-08-23T08:46:20.602Z,22.30
2022-08-23T08:48:49.835Z,22.30
2022-08-23T08:51:25.259Z,22.30
2022-08-23T08:53:52.417Z,22.30
2022-08-23T08:56:29.761Z,22.20
2022-08-23T08:59:16.226Z,22.30
2022-08-23T09:01:42.950Z,22.30
2022-08-23T09:04:10.377Z,22.30
2022-08-23T09:06:49.462Z,22.30
2022-08-23T09:09:37.007Z,22.30
2022-08-23T09:12:26.922Z,22.30
2022-08-23T09:15:05.786Z,22.20
2022-08-23T09:17:40.862Z,22.20
2022-08-23T09:20:08.402Z,22.20
2022-08-23T09:22:38.777Z,22.30
2022-08-23T09:25:08.036Z,22.20
2022-08-23T09:27:38.505Z,22.20
2022-08-23T09:30:05.955Z,22.30
2022-08-23T09:32:34.918Z,22.30
2022-08-23T09:35:06.809Z,22.30
2022-08-23T09:37:45.314Z,22.30
2022-08-23T09:40:17.451Z,22.40
2022-08-23T09:42:44.393Z,22.40
2022-08-23T09:45:35.205Z,22.50
2022-08-23T09:48:02.393Z,22.60
2022-08-23T09:50:31.100Z,22.60
2022-08-23T09:53:04.269Z,22.60
2022-08-23T09:55:35.190Z,22.60
2022-08-23T09:58:03.538Z,22.60
2022-08-23T10:00:33.927Z,22.60
2022-08-23T10:03:22.916Z,22.60
2022-08-23T10:05:52.150Z,22.60
2022-08-23T10:08:23.372Z,22.60
2022-08-23T10:10:51.856Z,22.50
2022-08-23T10:13:20.699Z,22.60
2022-08-23T10:16:07.382Z,22.60
2022-08-23T10:18:34.808Z,22.60
2022-08-23T10:21:11.269Z,22.50
2022-08-23T10:23:38.056Z,22.50
2022-08-23T10:26:07.063Z,22.50
2022-08-23T10:29:22.064Z,22.50
2022-08-23T10:32:11.849Z,22.50
2022-08-23T10:34:50.559Z,22.50
2022-08-23T10:37:30.096Z,22.50
2022-08-23T10:40:04.342Z,22.50
2022-08-23T10:42:35.592Z,22.50
2022-08-23T10:45:16.388Z,22.50
2022-08-23T10:47:52.994Z,22.50
2022-08-23T10:50:20.676Z,22.50
2022-08-23T10:52:53.690Z,22.50
2022-08-23T10:55:39.239Z,22.20
2022-08-23T10:58:07.927Z,22.50
2022-08-23T11:00:35.377Z,22.50
2022-08-23T11:03:20.538Z,22.40
2022-08-23T11:06:07.162Z,22.40
2022-08-23T11:08:34.946Z,22.50
2022-08-23T11:11:01.700Z,22.40
2022-08-23T11:13:29.730Z,22.40
2022-08-23T11:15:56.487Z,22.40
2022-08-23T11:18:28.992Z,22.40
2022-08-23T11:21:03.193Z,22.40
2022-08-23T11:23:38.614Z,22.40
2022-08-23T11:26:07.213Z,22.40
2022-08-23T11:28:41.530Z,22.40
2022-08-23T11:31:11.759Z,22.40
2022-08-23T11:33:46.632Z,22.40
2022-08-23T11:36:13.281Z,22.40
2022-08-23T11:38:49.161Z,22.40
2022-08-23T11:41:30.115Z,22.40
2022-08-23T11:43:56.877Z,22.40
2022-08-23T11:46:24.357Z,22.40
2022-08-23T11:49:09.938Z,22.40
2022-08-23T11:51:45.559Z,22.40
2022-08-23T11:54:27.522Z,22.40
2022-08-23T11:56:54.973Z,22.40
2022-08-23T11:59:22.252Z,22.40
2022-08-23T12:01:50.934Z,22.40
2022-08-23T12:04:26.873Z,22.50
2022-08-23T12:06:57.874Z,22.40
2022-08-23T12:09:24.527Z,22.40
2022-08-23T12:11:57.083Z,22.40
2022-08-23T12:14:42.638Z,22.40
2022-08-23T12:17:12.216Z,22.40
2022-08-23T12:19:46.565Z,22.40
2022-08-23T12:22:14.883Z,22.40
2022-08-23T12:24:43.495Z,22.30
2022-08-23T12:27:13.296Z,22.30
2022-08-23T12:29:59.155Z,22.30
2022-08-23T12:32:44.633Z,22.30
2022-08-23T12:35:30.421Z,22.40
2022-08-23T12:38:08.327Z,22.30
2022-08-23T12:40:46.262Z,22.30
2022-08-23T12:43:26.167Z,22.30
2022-08-23T12:45:55.134Z,22.30
2022-08-23T12:48:24.348Z,22.30
2022-08-23T12:50:58.408Z,22.30
2022-08-23T12:53:55.918Z,22.30
2022-08-23T12:56:31.708Z,22.30
2022-08-23T12:59:05.166Z,22.30
2022-08-23T13:01:34.054Z,22.30
2022-08-23T13:04:03.718Z,22.30
2022-08-23T13:06:36.998Z,22.30
2022-08-23T13:09:13.062Z,22.90
2022-08-23T13:11:40.006Z,22.30
2022-08-23T13:14:25.518Z,22.30
2022-08-23T13:16:52.350Z,22.30
2022-08-23T13:19:26.867Z,22.30
2022-08-23T13:22:09.860Z,22.30
2022-08-23T13:24:41.239Z,22.30
2022-08-23T13:27:16.870Z,22.30
2022-08-23T13:29:56.461Z,22.30
2022-08-23T13:32:34.939Z,22.30
2022-08-23T13:35:20.934Z,22.30
2022-08-23T13:37:47.827Z,22.20
2022-08-23T13:40:18.218Z,22.30
2022-08-23T13:42:51.117Z,22.30
2022-08-23T13:45:21.099Z,22.30
2022-08-23T13:47:50.674Z,22.20
2022-08-23T13:50:37.622Z,22.30
2022-08-23T13:53:20.856Z,22.20
2022-08-23T13:55:49.221Z,22.30
2022-08-23T13:58:25.264Z,22.20
2022-08-23T14:00:55.395Z,22.30
2022-08-23T14:03:27.643Z,22.30
2022-08-23T14:05:54.453Z,22.20
2022-08-23T14:08:21.276Z,22.20
2022-08-23T14:10:48.058Z,22.20
2022-08-23T14:13:15.721Z,22.20
2022-08-23T14:16:32.907Z,22.20
2022-08-23T14:18:34.323Z,22.20
2022-08-23T14:21:03.611Z,22.20
2022-08-23T14:23:30.349Z,22.20
2022-08-23T14:25:59.092Z,22.20
2022-08-23T14:28:29.567Z,22.20
2022-08-23T14:30:56.836Z,22.20
2022-08-23T14:33:23.646Z,22.20
2022-08-23T14:35:52.290Z,22.20
2022-08-23T14:38:19.236Z,22.20
2022-08-23T14:40:52.505Z,22.20
2022-08-23T14:43:20.559Z,22.20
2022-08-23T14:45:47.296Z,22.20
2022-08-23T14:48:14.067Z,22.20
2022-08-23T14:50:41.173Z,22.20
2022-08-23T14:53:08.465Z,22.20
2022-08-23T14:55:35.256Z,22.20
2022-08-23T14:58:02.599Z,22.20
2022-08-23T15:00:29.579Z,22.20
2022-08-23T15:02:56.462Z,22.20
2022-08-23T15:05:23.382Z,22.10
2022-08-23T15:07:50.418Z,22.20
2022-08-23T15:13:19.558Z,22.20
2022-08-23T15:15:51.112Z,22.20
2022-08-23T15:18:18.190Z,22.20
2022-08-23T15:20:45.682Z,22.10
2022-08-23T15:23:12.435Z,22.30
2022-08-23T15:25:40.154Z,22.30
2022-08-23T15:28:12.675Z,22.30
2022-08-23T15:30:40.600Z,22.30
2022-08-23T15:33:07.448Z,22.30
2022-08-23T15:35:40.460Z,22.40
2022-08-23T15:38:07.693Z,22.30
2022-08-23T15:40:34.560Z,22.30
2022-08-23T15:43:03.189Z,22.40
2022-08-23T15:45:31.574Z,22.40
2022-08-23T15:47:59.192Z,22.40
2022-08-23T15:50:27.638Z,22.40
2022-08-23T15:52:54.473Z,22.40
2022-08-23T15:55:21.431Z,22.50
2022-08-23T15:57:49.699Z,22.40
2022-08-23T16:00:17.471Z,22.40
2022-08-23T16:03:06.296Z,22.40
2022-08-23T16:05:31.182Z,22.40
2022-08-23T16:07:59.685Z,22.40
2022-08-23T16:10:28.094Z,22.40
2022-08-23T16:12:55.353Z,22.40
2022-08-23T16:15:22.481Z,22.40
2022-08-23T16:17:49.283Z,22.40
2022-08-23T16:20:17.190Z,22.40
2022-08-23T16:22:44.136Z,22.40
2022-08-23T16:25:10.949Z,22.40
2022-08-23T16:27:37.720Z,22.40
2022-08-23T16:30:05.521Z,22.40
2022-08-23T16:32:32.240Z,22.40
2022-08-23T16:34:59.238Z,22.40
2022-08-23T16:37:25.890Z,22.40
2022-08-23T16:39:52.917Z,22.40
2022-08-23T16:42:19.947Z,22.40
2022-08-23T16:44:47.033Z,22.40
2022-08-23T16:47:15.482Z,22.40
2022-08-23T16:49:43.727Z,22.40
2022-08-23T16:52:10.782Z,22.40
2022-08-23T16:54:37.669Z,22.40
2022-08-23T16:57:05.014Z,22.40
2022-08-23T16:59:31.698Z,22.40
2022-08-23T17:02:00.958Z,22.50
2022-08-23T17:04:37.631Z,22.40
2022-08-23T17:07:04.399Z,22.40
2022-08-23T17:09:31.066Z,22.30
2022-08-23T17:12:01.058Z,22.40
2022-08-23T17:14:28.332Z,22.40
2022-08-23T17:16:55.302Z,23.20
2022-08-23T17:19:22.225Z,22.30
2022-08-23T17:21:49.046Z,22.30
2022-08-23T17:24:15.824Z,22.30
2022-08-23T17:26:42.687Z,22.30
2022-08-23T17:29:09.594Z,22.30
2022-08-23T17:31:36.683Z,22.30
2022-08-23T17:34:04.015Z,22.30
2022-08-23T17:36:30.748Z,22.30
2022-08-23T17:38:57.721Z,22.30
2022-08-23T17:41:25.423Z,22.30
2022-08-23T17:43:52.286Z,22.30
2022-08-23T17:46:20.210Z,22.30
2022-08-23T17:48:47.194Z,22.30
2022-08-23T17:51:13.846Z,22.30
2022-08-23T17:53:40.767Z,22.30
2022-08-23T17:56:12.209Z,22.40
2022-08-23T17:58:39.454Z,22.30
2022-08-23T18:01:06.420Z,22.30
2022-08-23T18:03:33.513Z,22.30
2022-08-23T18:06:00.425Z,22.30
2022-08-23T18:08:27.146Z,22.30
2022-08-23T18:10:53.861Z,22.30
2022-08-23T18:13:20.559Z,22.30
2022-08-23T18:15:47.250Z,22.30
2022-08-23T18:18:14.531Z,22.30
2022-08-23T18:20:41.246Z,22.30
2022-08-23T18:23:08.070Z,22.30
2022-08-23T18:25:35.318Z,22.40
2022-08-23T18:28:09.201Z,22.40
2022-08-23T18:30:37.492Z,22.50
2022-08-23T18:33:04.853Z,22.60
2022-08-23T18:35:32.524Z,22.60
2022-08-23T18:37:59.280Z,22.70
2022-08-23T18:40:27.428Z,22.70
2022-08-23T18:42:55.003Z,22.70
2022-08-23T18:45:23.196Z,22.80
2022-08-23T18:47:49.965Z,22.80
2022-08-23T18:50:17.478Z,22.90
2022-08-23T18:52:44.536Z,22.80
2022-08-23T18:55:11.290Z,22.80
2022-08-23T18:57:39.032Z,22.80
2022-08-23T19:00:06.192Z,22.80
2022-08-23T19:02:34.067Z,22.70
2022-08-23T19:05:03.001Z,22.70
2022-08-23T19:07:29.802Z,22.70
2022-08-23T19:09:56.471Z,22.70
2022-08-23T19:12:23.346Z,22.70
2022-08-23T19:14:50.091Z,22.70
2022-08-23T19:17:16.779Z,22.70
2022-08-23T19:19:43.543Z,22.60
2022-08-23T19:22:10.446Z,22.70
2022-08-23T19:24:37.147Z,22.70
2022-08-23T19:27:04.586Z,22.60
2022-08-23T19:29:31.957Z,22.60
2022-08-23T19:31:58.717Z,22.60
2022-08-23T19:34:25.910Z,23.80
2022-08-23T19:37:00.662Z,22.60
2022-08-23T19:39:28.586Z,22.60
2022-08-23T19:41:55.457Z,22.60
2022-08-23T19:44:22.608Z,22.60
2022-08-23T19:46:49.983Z,22.60
2022-08-23T19:49:17.129Z,22.50
2022-08-23T19:51:44.024Z,22.50
2022-08-23T19:54:12.618Z,22.50
2022-08-23T19:56:41.413Z,22.50
2022-08-23T19:59:09.931Z,22.50
2022-08-23T20:01:36.946Z,22.50
2022-08-23T20:04:03.890Z,22.50
2022-08-23T20:06:31.876Z,22.50
2022-08-23T20:08:58.692Z,22.50
2022-08-23T20:11:25.452Z,22.50
2022-08-23T20:13:54.034Z,22.50
2022-08-23T20:16:20.876Z,22.50
2022-08-23T20:18:47.571Z,22.40
2022-08-23T20:21:14.265Z,22.40
2022-08-23T20:24:03.568Z,22.80
2022-08-23T20:26:34.607Z,22.50
2022-08-23T20:29:02.301Z,22.50
2022-08-23T20:31:30.310Z,22.50
2022-08-23T20:33:57.189Z,22.50
2022-08-23T20:36:25.650Z,22.50
2022-08-23T20:38:52.742Z,22.40
2022-08-23T20:41:21.304Z,22.50
2022-08-23T20:43:49.301Z,22.50
2022-08-23T20:46:16.107Z,22.40
2022-08-23T20:48:43.109Z,22.40
2022-08-23T20:51:09.983Z,22.40
2022-08-23T20:53:38.141Z,22.40
2022-08-23T20:56:05.305Z,22.40
2022-08-23T20:58:31.990Z,22.40
2022-08-23T21:00:58.815Z,22.40
2022-08-23T21:03:25.626Z,22.40
2022-08-23T21:06:01.018Z,22.40
2022-08-23T21:08:27.875Z,22.40
2022-08-23T21:10:54.851Z,22.40
2022-08-23T21:13:21.691Z,22.40
2022-08-23T21:15:48.547Z,22.40
2022-08-23T21:18:15.336Z,22.40
2022-08-23T21:20:42.051Z,22.40
2022-08-23T21:23:08.785Z,22.30
2022-08-23T21:25:35.650Z,22.30
2022-08-23T21:28:04.418Z,22.30
2022-08-23T21:30:31.501Z,22.30
2022-08-23T21:32:59.894Z,22.30
2022-08-23T21:35:27.254Z,22.30
2022-08-23T21:37:53.937Z,22.30
2022-08-23T21:40:21.119Z,22.30
2022-08-23T21:42:48.175Z,22.30
2022-08-23T21:45:14.946Z,22.30
2022-08-23T21:47:41.654Z,22.30
2022-08-23T21:50:08.615Z,22.30
2022-08-23T21:52:35.509Z,22.30
2022-08-23T21:55:02.419Z,22.30
2022-08-23T21:57:29.116Z,22.30
2022-08-23T21:59:55.854Z,22.30
2022-08-23T22:02:23.277Z,22.30
2022-08-23T22:04:50.457Z,22.30
2022-08-23T22:07:17.274Z,22.30
2022-08-23T22:09:44.044Z,22.20
2022-08-23T22:12:10.802Z,22.20
2022-08-23T22:14:37.538Z,22.20
2022-08-23T22:17:04.370Z,22.20
2022-08-23T22:19:31.121Z,22.20
2022-08-23T22:21:58.097Z,22.20
2022-08-23T22:24:26.206Z,22.20
2022-08-23T22:26:53.759Z,22.20
2022-08-23T22:29:20.456Z,22.20
2022-08-23T22:31:48.299Z,22.20
2022-08-23T22:34:15.412Z,22.20
2022-08-23T22:36:42.134Z,22.20
2022-08-23T22:39:08.827Z,22.20
2022-08-23T22:41:35.480Z,22.20
2022-08-23T22:44:02.770Z,21.90
2022-08-23T22:46:30.441Z,22.20
2022-08-23T22:48:58.149Z,22.20
2022-08-23T22:51:29.355Z,22.20
2022-08-23T22:53:57.936Z,22.10
2022-08-23T22:56:26.387Z,22.90
2022-08-23T22:58:53.519Z,22.20
2022-08-23T23:01:22.728Z,22.20
2022-08-23T23:03:50.613Z,22.10
2022-08-23T23:06:18.498Z,22.10
2022-08-23T23:08:45.234Z,22.10
2022-08-23T23:11:12.964Z,22.10
2022-08-23T23:13:40.199Z,22.10
2022-08-23T23:16:08.774Z,22.10
2022-08-23T23:18:35.909Z,22.10
2022-08-23T23:21:04.326Z,22.10
2022-08-23T23:23:31.670Z,22.10
2022-08-23T23:25:58.714Z,22.10
2022-08-23T23:28:25.541Z,22.10
2022-08-23T23:30:53.906Z,22.10
2022-08-23T23:33:21.190Z,22.10
2022-08-23T23:35:48.672Z,22.10
2022-08-23T23:38:15.718Z,22.10
2022-08-23T23:40:42.997Z,22.10
2022-08-23T23:43:12.850Z,22.20
2022-08-23T23:45:41.169Z,22.20
2022-08-23T23:48:08.826Z,22.20
2022-08-23T23:50:36.644Z,22.20
2022-08-23T23:53:04.362Z,22.20
2022-08-23T23:55:31.126Z,22.30
2022-08-23T23:57:58.667Z,22.20
